TimeCDT,TemperatureF,Dew PointF,Humidity,Sea Level PressureIn,VisibilityMPH,Wind Direction,Wind SpeedMPH,Gust SpeedMPH,PrecipitationIn,Events,Conditions,WindDirDegrees,DateUTC
12:53 AM,55.9,39.0,53,30.21,10.0,Calm,Calm,-,N/A,,Clear,0,2013-03-13 05:53:00
1:53 AM,51.1,39.9,66,30.25,10.0,Calm,Calm,-,N/A,,Clear,0,2013-03-13 06:53:00
2:53 AM,50.0,41.0,71,30.27,10.0,NE,3.5,-,N/A,,Clear,40,2013-03-13 07:53:00
3:53 AM,51.1,39.9,66,30.27,10.0,ENE,3.5,-,N/A,,Clear,60,2013-03-13 08:53:00
4:53 AM,51.1,39.9,66,30.27,10.0,NE,4.6,-,N/A,,Clear,50,2013-03-13 09:53:00
5:53 AM,48.9,39.9,71,30.30,10.0,NE,5.8,-,N/A,,Clear,50,2013-03-13 10:53:00
6:53 AM,48.0,42.1,80,30.32,9.0,NE,3.5,-,N/A,,Clear,40,2013-03-13 11:53:00
7:53 AM,48.9,44.1,83,30.35,6.0,NNE,5.8,-,N/A,,Haze,30,2013-03-13 12:53:00
8:53 AM,53.1,45.0,74,30.38,7.0,NE,5.8,-,N/A,,Clear,40,2013-03-13 13:53:00
9:53 AM,59.0,46.9,64,30.41,10.0,NE,5.8,-,N/A,,Clear,40,2013-03-13 14:53:00
10:53 AM,64.0,48.0,56,30.41,10.0,NE,5.8,-,N/A,,Clear,50,2013-03-13 15:53:00
11:53 AM,68.0,44.1,42,30.41,10.0,East,8.1,-,N/A,,Clear,100,2013-03-13 16:53:00
12:53 PM,69.1,42.1,38,30.39,10.0,Variable,6.9,-,N/A,,Clear,0,2013-03-13 17:53:00
1:53 PM,73.0,37.0,27,30.35,10.0,SSE,8.1,-,N/A,,Clear,150,2013-03-13 18:53:00
2:53 PM,73.9,37.0,26,30.32,10.0,Calm,Calm,-,N/A,,Clear,0,2013-03-13 19:53:00
3:53 PM,75.0,37.9,26,30.28,10.0,Variable,4.6,-,N/A,,Clear,0,2013-03-13 20:53:00
4:53 PM,75.0,37.9,26,30.27,10.0,South,9.2,-,N/A,,Clear,170,2013-03-13 21:53:00
5:53 PM,75.0,39.0,27,30.26,10.0,SE,5.8,-,N/A,,Clear,130,2013-03-13 22:53:00
6:53 PM,73.9,37.9,27,30.26,10.0,SSE,8.1,-,N/A,,Clear,160,2013-03-13 23:53:00
7:53 PM,68.0,39.0,35,30.27,10.0,SE,6.9,-,N/A,,Clear,130,2013-03-14 00:53:00
8:53 PM,64.0,39.0,40,30.28,10.0,SSE,8.1,-,N/A,,Clear,150,2013-03-14 01:53:00
9:53 PM,63.0,37.0,38,30.31,10.0,SSE,9.2,-,N/A,,Clear,150,2013-03-14 02:53:00
10:53 PM,59.0,37.0,44,30.34,10.0,SSE,5.8,-,N/A,,Clear,150,2013-03-14 03:53:00
11:53 PM,55.9,37.0,49,30.35,10.0,SE,8.1,-,N/A,,Clear,140,2013-03-14 04:53:00